Croftville, Minnesota
Current Conditions -  °F | °C
As of 3:13 PM on Saturday 20 Dec 2014 (Local Time) from KCKC Reporting Station
Haze Haze  
Wind Chill: 20°   Ceiling: 200
Heat Index: 27°   Visibility: 2.5mi
Dew Point: 23°   Wind: 6mph
Humidity: 86%   Direction: 170°S
Pressure: 30.07"   Gusts: NA
Location:  47.8874°N, 90.328°W
Report Text: KCKC 202113Z AUTO 17005KT 2 1/2SM BR OVC002 M03/M05 A3007 RMK AO2
Loading
Personal Weather Stations






























Interactive Weather Map New forecast layout! Learn more

10-Day Weather Forecast

Advertisements
Track Severe Weather on mobile